sensor_id;sensor_type;location;lat;lon;timestamp;pressure;altitude;pressure_sealevel;temperature;humidity
12636;BME280;6383;50.830;7.210;2022-07-09T00:00:33;102052.63;;;19.11;70.15
12636;BME280;6383;50.830;7.210;2022-07-09T00:03:01;102048.56;;;19.09;69.92
12636;BME280;6383;50.830;7.210;2022-07-09T00:05:29;102043.69;;;19.06;70.26
12636;BME280;6383;50.830;7.210;2022-07-09T00:07:58;102048.22;;;19.01;70.18
12636;BME280;6383;50.830;7.210;2022-07-09T00:10:26;102054.03;;;19.00;70.12
12636;BME280;6383;50.830;7.210;2022-07-09T00:12:56;102050.81;;;18.98;70.23
12636;BME280;6383;50.830;7.210;2022-07-09T00:15:25;102042.38;;;18.94;70.26
12636;BME280;6383;50.830;7.210;2022-07-09T00:17:54;102041.38;;;18.90;70.61
12636;BME280;6383;50.830;7.210;2022-07-09T00:20:22;102041.38;;;18.90;71.15
12636;BME280;6383;50.830;7.210;2022-07-09T00:22:51;102048.66;;;18.86;71.18
12636;BME280;6383;50.830;7.210;2022-07-09T00:25:20;102048.97;;;18.85;71.33
12636;BME280;6383;50.830;7.210;2022-07-09T00:27:48;102048.00;;;18.81;71.13
12636;BME280;6383;50.830;7.210;2022-07-09T00:30:18;102047.50;;;18.79;71.24
12636;BME280;6383;50.830;7.210;2022-07-09T00:32:47;102045.56;;;18.79;71.22
12636;BME280;6383;50.830;7.210;2022-07-09T00:35:16;102034.34;;;18.76;71.08
12636;BME280;6383;50.830;7.210;2022-07-09T00:37:44;102040.81;;;18.71;71.37
12636;BME280;6383;50.830;7.210;2022-07-09T00:40:13;102041.16;;;18.70;71.21
12636;BME280;6383;50.830;7.210;2022-07-09T00:42:42;102035.16;;;18.67;71.60
12636;BME280;6383;50.830;7.210;2022-07-09T00:45:10;102031.91;;;18.65;71.28
12636;BME280;6383;50.830;7.210;2022-07-09T00:47:40;102030.91;;;18.61;71.42
12636;BME280;6383;50.830;7.210;2022-07-09T00:50:09;102030.09;;;18.61;71.52
12636;BME280;6383;50.830;7.210;2022-07-09T00:52:39;102027.94;;;18.58;71.72
12636;BME280;6383;50.830;7.210;2022-07-09T00:55:08;102023.84;;;18.55;71.97
12636;BME280;6383;50.830;7.210;2022-07-09T00:57:39;102021.75;;;18.52;71.72
12636;BME280;6383;50.830;7.210;2022-07-09T01:00:09;102024.53;;;18.52;72.04
12636;BME280;6383;50.830;7.210;2022-07-09T01:02:38;102019.63;;;18.49;72.25
12636;BME280;6383;50.830;7.210;2022-07-09T01:05:08;102005.66;;;18.46;72.30
12636;BME280;6383;50.830;7.210;2022-07-09T01:07:37;102010.06;;;18.47;72.44
12636;BME280;6383;50.830;7.210;2022-07-09T01:10:06;102013.94;;;18.46;72.55
12636;BME280;6383;50.830;7.210;2022-07-09T01:12:33;102009.88;;;18.43;72.61
12636;BME280;6383;50.830;7.210;2022-07-09T01:15:01;102008.56;;;18.41;72.34
12636;BME280;6383;50.830;7.210;2022-07-09T01:17:36;102007.09;;;18.35;72.52
12636;BME280;6383;50.830;7.210;2022-07-09T01:20:08;102001.88;;;18.33;72.79
12636;BME280;6383;50.830;7.210;2022-07-09T01:22:38;102005.78;;;18.32;72.88
12636;BME280;6383;50.830;7.210;2022-07-09T01:25:08;102006.09;;;18.30;72.94
12636;BME280;6383;50.830;7.210;2022-07-09T01:27:36;102006.41;;;18.29;72.91
12636;BME280;6383;50.830;7.210;2022-07-09T01:30:05;102003.97;;;18.27;72.83
12636;BME280;6383;50.830;7.210;2022-07-09T01:32:33;102003.47;;;18.25;73.15
12636;BME280;6383;50.830;7.210;2022-07-09T01:35:01;102002.19;;;18.23;72.78
12636;BME280;6383;50.830;7.210;2022-07-09T01:37:30;102002.00;;;18.19;73.06
12636;BME280;6383;50.830;7.210;2022-07-09T01:40:00;101996.78;;;18.18;72.92
12636;BME280;6383;50.830;7.210;2022-07-09T01:42:29;101997.91;;;18.17;72.74
12636;BME280;6383;50.830;7.210;2022-07-09T01:44:57;101991.09;;;18.14;72.70
12636;BME280;6383;50.830;7.210;2022-07-09T01:47:26;101987.53;;;18.14;72.76
12636;BME280;6383;50.830;7.210;2022-07-09T01:49:54;101984.91;;;18.09;72.93
12636;BME280;6383;50.830;7.210;2022-07-09T01:52:23;101988.81;;;18.08;73.14
12636;BME280;6383;50.830;7.210;2022-07-09T01:54:52;101984.75;;;18.05;73.27
12636;BME280;6383;50.830;7.210;2022-07-09T01:57:22;101988.44;;;18.01;73.07
12636;BME280;6383;50.830;7.210;2022-07-09T01:59:50;101982.09;;;18.00;73.55
12636;BME280;6383;50.830;7.210;2022-07-09T02:02:19;101990.19;;;17.96;73.77
12636;BME280;6383;50.830;7.210;2022-07-09T02:04:48;101981.09;;;17.96;73.78
12636;BME280;6383;50.830;7.210;2022-07-09T02:07:16;101985.31;;;17.93;73.83
12636;BME280;6383;50.830;7.210;2022-07-09T02:09:45;101983.69;;;17.92;73.88
12636;BME280;6383;50.830;7.210;2022-07-09T02:12:16;101976.88;;;17.90;74.01
12636;BME280;6383;50.830;7.210;2022-07-09T02:14:47;101974.44;;;17.88;73.66
12636;BME280;6383;50.830;7.210;2022-07-09T02:17:16;101970.84;;;17.88;73.48
12636;BME280;6383;50.830;7.210;2022-07-09T02:19:45;101963.22;;;17.85;74.01
12636;BME280;6383;50.830;7.210;2022-07-09T02:22:13;101977.81;;;17.85;73.82
12636;BME280;6383;50.830;7.210;2022-07-09T02:24:42;101967.91;;;17.84;73.86
12636;BME280;6383;50.830;7.210;2022-07-09T02:27:11;101962.22;;;17.81;73.76
12636;BME280;6383;50.830;7.210;2022-07-09T02:29:39;101962.88;;;17.78;73.95
12636;BME280;6383;50.830;7.210;2022-07-09T02:32:10;101962.69;;;17.74;74.46
12636;BME280;6383;50.830;7.210;2022-07-09T02:34:38;101967.38;;;17.74;74.10
12636;BME280;6383;50.830;7.210;2022-07-09T02:37:07;101958.59;;;17.72;74.22
12636;BME280;6383;50.830;7.210;2022-07-09T02:39:36;101956.47;;;17.69;74.43
12636;BME280;6383;50.830;7.210;2022-07-09T02:42:04;101957.91;;;17.66;74.21
12636;BME280;6383;50.830;7.210;2022-07-09T02:44:31;101959.06;;;17.65;74.32
12636;BME280;6383;50.830;7.210;2022-07-09T02:47:00;101955.16;;;17.66;74.39
12636;BME280;6383;50.830;7.210;2022-07-09T02:49:30;101948.38;;;17.64;74.91
12636;BME280;6383;50.830;7.210;2022-07-09T02:51:58;101953.03;;;17.63;74.80
12636;BME280;6383;50.830;7.210;2022-07-09T02:54:28;101954.97;;;17.62;74.79
12636;BME280;6383;50.830;7.210;2022-07-09T02:56:57;101949.78;;;17.61;74.60
12636;BME280;6383;50.830;7.210;2022-07-09T02:59:26;101956.41;;;17.60;75.01
12636;BME280;6383;50.830;7.210;2022-07-09T03:01:54;101951.22;;;17.58;74.87
12636;BME280;6383;50.830;7.210;2022-07-09T03:04:23;101949.59;;;17.57;74.78
12636;BME280;6383;50.830;7.210;2022-07-09T03:06:53;101951.00;;;17.55;74.83
12636;BME280;6383;50.830;7.210;2022-07-09T03:09:22;101951.63;;;17.52;75.02
12636;BME280;6383;50.830;7.210;2022-07-09T03:11:50;101954.22;;;17.48;74.73
12636;BME280;6383;50.830;7.210;2022-07-09T03:14:19;101955.03;;;17.49;74.78
12636;BME280;6383;50.830;7.210;2022-07-09T03:16:47;101941.91;;;17.46;74.86
12636;BME280;6383;50.830;7.210;2022-07-09T03:19:16;101944.16;;;17.44;75.19
12636;BME280;6383;50.830;7.210;2022-07-09T03:21:46;101947.50;;;17.41;75.48
12636;BME280;6383;50.830;7.210;2022-07-09T03:24:16;101957.50;;;17.37;75.10
12636;BME280;6383;50.830;7.210;2022-07-09T03:26:45;101952.66;;;17.34;75.17
12636;BME280;6383;50.830;7.210;2022-07-09T03:29:13;101951.84;;;17.33;75.45
12636;BME280;6383;50.830;7.210;2022-07-09T03:31:42;101947.47;;;17.32;74.97
12636;BME280;6383;50.830;7.210;2022-07-09T03:34:11;101952.97;;;17.32;75.51
12636;BME280;6383;50.830;7.210;2022-07-09T03:36:39;101949.41;;;17.32;75.70
12636;BME280;6383;50.830;7.210;2022-07-09T03:39:08;101951.03;;;17.33;76.33
12636;BME280;6383;50.830;7.210;2022-07-09T03:41:38;101938.09;;;17.33;76.24
12636;BME280;6383;50.830;7.210;2022-07-09T03:44:07;101943.75;;;17.37;76.15
12636;BME280;6383;50.830;7.210;2022-07-09T03:46:34;101943.13;;;17.40;76.25
12636;BME280;6383;50.830;7.210;2022-07-09T03:49:02;101952.22;;;17.40;76.00
12636;BME280;6383;50.830;7.210;2022-07-09T03:51:30;101943.63;;;17.42;76.03
12636;BME280;6383;50.830;7.210;2022-07-09T03:53:58;101951.59;;;17.43;76.23
12636;BME280;6383;50.830;7.210;2022-07-09T03:56:26;101951.59;;;17.43;75.87
12636;BME280;6383;50.830;7.210;2022-07-09T03:58:55;101953.22;;;17.44;76.17
12636;BME280;6383;50.830;7.210;2022-07-09T04:01:22;101945.78;;;17.45;76.34
12636;BME280;6383;50.830;7.210;2022-07-09T04:03:50;101941.91;;;17.46;76.25
12636;BME280;6383;50.830;7.210;2022-07-09T04:06:18;101938.94;;;17.42;76.38
12636;BME280;6383;50.830;7.210;2022-07-09T04:08:46;101940.56;;;17.43;76.01
12636;BME280;6383;50.830;7.210;2022-07-09T04:11:14;101938.94;;;17.42;76.47
12636;BME280;6383;50.830;7.210;2022-07-09T04:13:42;101944.97;;;17.44;76.53
12636;BME280;6383;50.830;7.210;2022-07-09T04:16:11;101946.91;;;17.44;76.55
12636;BME280;6383;50.830;7.210;2022-07-09T04:18:38;101940.56;;;17.43;76.58
12636;BME280;6383;50.830;7.210;2022-07-09T04:21:08;101938.63;;;17.44;77.21
12636;BME280;6383;50.830;7.210;2022-07-09T04:23:36;101937.81;;;17.43;76.67
12636;BME280;6383;50.830;7.210;2022-07-09T04:26:04;101941.09;;;17.45;77.16
12636;BME280;6383;50.830;7.210;2022-07-09T04:28:32;101947.09;;;17.47;77.35
12636;BME280;6383;50.830;7.210;2022-07-09T04:31:00;101947.91;;;17.48;77.20
12636;BME280;6383;50.830;7.210;2022-07-09T04:33:29;101942.09;;;17.49;77.09
12636;BME280;6383;50.830;7.210;2022-07-09T04:35:58;101943.88;;;17.54;77.78
12636;BME280;6383;50.830;7.210;2022-07-09T04:38:26;101952.44;;;17.52;77.49
12636;BME280;6383;50.830;7.210;2022-07-09T04:40:54;101953.25;;;17.53;77.87
12636;BME280;6383;50.830;7.210;2022-07-09T04:43:22;101963.66;;;17.56;78.25
12636;BME280;6383;50.830;7.210;2022-07-09T04:45:50;101956.72;;;17.58;78.08
12636;BME280;6383;50.830;7.210;2022-07-09T04:48:18;101958.84;;;17.61;78.17
12636;BME280;6383;50.830;7.210;2022-07-09T04:50:48;101962.41;;;17.62;78.01
12636;BME280;6383;50.830;7.210;2022-07-09T04:53:16;101954.38;;;17.66;77.85
12636;BME280;6383;50.830;7.210;2022-07-09T04:55:44;101965.56;;;17.69;78.08
12636;BME280;6383;50.830;7.210;2022-07-09T04:58:12;101964.44;;;17.70;77.57
12636;BME280;6383;50.830;7.210;2022-07-09T05:00:39;101964.94;;;17.72;77.98
12636;BME280;6383;50.830;7.210;2022-07-09T05:03:08;101962.69;;;17.74;77.97
12636;BME280;6383;50.830;7.210;2022-07-09T05:05:36;101967.88;;;17.76;77.86
12636;BME280;6383;50.830;7.210;2022-07-09T05:08:06;101960.94;;;17.78;78.15
12636;BME280;6383;50.830;7.210;2022-07-09T05:10:33;101965.78;;;17.81;78.13
12636;BME280;6383;50.830;7.210;2022-07-09T05:13:01;101967.09;;;17.84;77.94
12636;BME280;6383;50.830;7.210;2022-07-09T05:15:29;101969.84;;;17.84;78.51
12636;BME280;6383;50.830;7.210;2022-07-09T05:17:58;101960.97;;;17.87;78.27
12636;BME280;6383;50.830;7.210;2022-07-09T05:20:25;101962.78;;;17.91;78.08
12636;BME280;6383;50.830;7.210;2022-07-09T05:22:53;101954.72;;;17.95;78.34
12636;BME280;6383;50.830;7.210;2022-07-09T05:25:23;101960.69;;;17.97;78.62
12636;BME280;6383;50.830;7.210;2022-07-09T05:27:50;101959.75;;;18.02;79.08
12636;BME280;6383;50.830;7.210;2022-07-09T05:30:17;101957.81;;;18.02;79.25
12636;BME280;6383;50.830;7.210;2022-07-09T05:32:44;101963.00;;;18.04;79.23
12636;BME280;6383;50.830;7.210;2022-07-09T05:35:13;101963.50;;;18.06;78.85
12636;BME280;6383;50.830;7.210;2022-07-09T05:37:41;101958.81;;;18.06;78.97
12636;BME280;6383;50.830;7.210;2022-07-09T05:40:10;101956.38;;;18.05;78.89
12636;BME280;6383;50.830;7.210;2022-07-09T05:42:41;101961.38;;;18.03;79.41
12636;BME280;6383;50.830;7.210;2022-07-09T05:45:09;101955.56;;;18.04;79.31
12636;BME280;6383;50.830;7.210;2022-07-09T05:47:36;101959.44;;;18.03;79.47
12636;BME280;6383;50.830;7.210;2022-07-09T05:50:05;101967.06;;;18.06;79.31
12636;BME280;6383;50.830;7.210;2022-07-09T05:52:32;101963.19;;;18.07;79.64
12636;BME280;6383;50.830;7.210;2022-07-09T05:55:00;101960.44;;;18.07;79.32
12636;BME280;6383;50.830;7.210;2022-07-09T05:57:30;101953.81;;;18.08;79.19
12636;BME280;6383;50.830;7.210;2022-07-09T05:59:59;101966.59;;;18.13;79.24
12636;BME280;6383;50.830;7.210;2022-07-09T06:02:28;101960.16;;;18.17;79.69
12636;BME280;6383;50.830;7.210;2022-07-09T06:04:56;101961.47;;;18.20;79.76
12636;BME280;6383;50.830;7.210;2022-07-09T06:07:24;101957.59;;;18.21;79.42
12636;BME280;6383;50.830;7.210;2022-07-09T06:09:51;101959.72;;;18.24;79.86
12636;BME280;6383;50.830;7.210;2022-07-09T06:12:18;101955.16;;;18.28;80.16
12636;BME280;6383;50.830;7.210;2022-07-09T06:14:46;101957.47;;;18.35;79.69
12636;BME280;6383;50.830;7.210;2022-07-09T06:17:14;101954.59;;;18.40;79.47
12636;BME280;6383;50.830;7.210;2022-07-09T06:19:41;101950.22;;;18.47;79.56
12636;BME280;6383;50.830;7.210;2022-07-09T06:22:10;101942.63;;;18.53;79.69
12636;BME280;6383;50.830;7.210;2022-07-09T06:24:37;101942.44;;;18.58;79.54
12636;BME280;6383;50.830;7.210;2022-07-09T06:27:06;101944.59;;;18.61;79.69
12636;BME280;6383;50.830;7.210;2022-07-09T06:29:34;101942.03;;;18.64;79.68
12636;BME280;6383;50.830;7.210;2022-07-09T06:32:02;101952.41;;;18.67;79.31
12636;BME280;6383;50.830;7.210;2022-07-09T06:34:31;101947.41;;;18.70;78.65
12636;BME280;6383;50.830;7.210;2022-07-09T06:36:58;101959.38;;;18.74;78.90
12636;BME280;6383;50.830;7.210;2022-07-09T06:39:26;101962.63;;;18.76;78.09
12636;BME280;6383;50.830;7.210;2022-07-09T06:42:12;101956.47;;;18.79;78.76
12636;BME280;6383;50.830;7.210;2022-07-09T06:44:40;101957.94;;;18.85;78.63
12636;BME280;6383;50.830;7.210;2022-07-09T06:47:08;101955.34;;;18.88;79.07
12636;BME280;6383;50.830;7.210;2022-07-09T06:49:37;101963.31;;;18.90;78.79
12636;BME280;6383;50.830;7.210;2022-07-09T06:52:06;101953.59;;;18.92;78.98
12636;BME280;6383;50.830;7.210;2022-07-09T06:54:34;101954.06;;;18.94;78.75
